Last 30 Days

Robertsbridge Vineyards

Daily Data | America/Los_Angeles
as of 5/18/21 4:41 PM PDT
Date Daily Max Temp (°F) Time of Max Temp Daily Min Temp (°F) Time of Min Temp Dew Pt (°F) Max RH (%) Min RH (%) Hrs <= 32F (hrs) Hrs <= 28F (hrs) Hrs 70-85F (hrs) Hrs > 95F (hrs) Powdery Mildew Stress (pts) GDDs (DL) GDDs (Mx/Mn) Chilling <=45F (hrs) Bat Volt Min Day (V)
5/17/21 82.0 1513 41.6 0552 41.4 93 19 0.0 0.0 8.64 0.00 100 13.1 11.8 3.4 12.7
5/16/21 84.4 1241 46.5 0554 47.2 90 23 0.0 0.0 10.60 0.00 90 15.9 15.5 0.0 12.7
5/15/21 82.6 1341 43.2 0534 45.2 89 20 0.0 0.0 7.92 0.00 70 13.2 12.9 2.4 12.6
5/14/21 87.4 1341 46.9 0536 41.7 79 16 0.0 0.0 4.72 0.00 50 15.9 17.1 0.0 12.7
5/13/21 91.6 1422 45.9 0604 39.1 71 12 0.0 0.0 2.77 0.00 60 19.1 18.7 0.0 12.6
5/12/21 90.6 1504 45.7 0536 34.8 64 5 0.0 0.0 3.31 0.00 70 18.6 18.1 0.0 12.7
5/11/21 90.4 1545 44.0 0618 32.7 67 11 0.0 0.0 3.69 0.00 80 18.3 17.2 0.5 12.7
5/10/21 88.7 1638 42.0 0618 30.3 86 5 0.0 0.0 5.82 0.00 90 16.6 15.4 3.9 12.7
5/9/21 80.9 1500 40.8 0600 38.5 81 19 0.0 0.0 8.22 0.00 100 12.5 10.9 4.6 12.7
5/8/21 85.1 1453 38.1 0509 33.0 89 9 0.0 0.0 9.59 0.00 100 14.5 11.6 6.4 12.7
5/7/21 75.2 1529 36.7 0616 37.5 96 24 0.0 0.0 4.54 0.00 90 8.4 6.0 7.7 12.6
5/6/21 75.9 1532 41.5 0614 37.9 90 21 0.0 0.0 7.50 0.00 100 10.6 8.7 3.8 12.7
5/5/21 89.4 1532 45.0 0636 41.1 87 12 0.0 0.0 3.18 0.00 90 17.8 17.2 0.0 12.7
5/4/21 85.2 1518 45.4 0426 42.0 83 20 0.0 0.0 9.65 0.00 100 15.1 15.3 0.0 12.7
5/3/21 85.4 1558 41.8 0608 40.4 94 15 0.0 0.0 9.32 0.00 100 14.2 13.6 5.6 12.7
5/2/21 77.7 1516 38.0 0554 39.5 91 20 0.0 0.0 7.19 0.00 100 10.6 7.9 6.7 12.7
5/1/21 76.6 1516 42.7 0556 43.8 88 29 0.0 0.0 6.01 0.00 100 10.6 9.6 3.4 12.7
4/30/21 84.9 1346 41.8 0645 38.6 78 14 0.0 0.0 9.16 0.00 80 14.4 13.4 2.8 12.6
4/29/21 89.3 1606 40.6 0446 36.9 76 11 0.0 0.0 3.65 0.00 60 15.8 15.0 5.8 12.7
4/28/21 84.4 1647 38.1 0618 33.8 88 11 0.0 0.0 9.03 0.00 70 12.9 11.3 6.5 12.7
4/27/21 75.4 1708 32.5 0635 33.1 99 15 0.0 0.0 4.59 0.00 50 8.2 4.0 8.6 12.6
4/26/21 62.8 1526 31.0 0456 33.3 99 28 4.4 0.0 0.00 0.00 60 2.4 0.0 11.8 12.6
4/25/21 57.9 1540 33.9 0039 38.0 96 40 0.0 0.0 0.00 0.00 70 1.1 0.0 11.6 12.7
4/24/21 58.2 1526 43.5 0058 38.9 91 47 0.0 0.0 0.00 0.00 80 1.4 0.9 0.7 12.7
4/23/21 76.8 1421 38.9 0624 36.3 82 16 0.0 0.0 5.66 0.00 90 9.6 7.9 6.5 12.7
4/22/21 78.6 1421 39.1 0542 39.4 89 14 0.0 0.0 7.63 0.00 100 10.8 8.9 7.1 12.6
4/21/21 78.3 1623 38.8 0636 37.5 94 15 0.0 0.0 8.52 0.00 100 11.1 8.5 7.0 12.6
4/20/21 71.3 1546 37.2 0447 38.2 87 30 0.0 0.0 0.52 0.00 80 7.2 4.2 7.9 12.6
4/19/21 82.4 1521 40.5 0638 34.0 72 13 0.0 0.0 8.96 0.00 90 12.3 11.5 5.4 12.6
4/18/21 86.6 1611 36.6 0615 27.9 73 7 0.0 0.0 9.70 0.00 70 14.0 11.6 6.5 12.6
Max 91.6 - 46.9 - 47.2 99 47 4.4 0.0 10.60 0.00 - 19.1 18.7 11.8 12.7
Avg - - - - 37.7 - - 0.1 0.0 6.00 0.00 - 12.2 10.8 4.6 -
Min 57.9 - 31.0 - 27.9 64 5 0.0 0.0 0.00 0.00 - 1.1 0.0 0.0 12.6
Total - - - - - - - 4.4 0.0 180.10 0.00 - 366.1 324.6 136.6 -